Time;durP1;ratioP1;P1;durP2;ratioP2;P2;SDS_P1;SDS_P2;PMS_P1;PMS_P2;Temp;Humidity;BMP_temperature;BMP_pressure;BME280_temperature;BME280_humidity;BME280_pressure;Samples;Min_cycle;Max_cycle;Signal;HPM_P1;HPM_P2
2022/05/16 00:00:15;;;;;;;0.30;0.30;;;10.80;99.90;;;;;;5045855;28;20044;-83
2022/05/16 00:02:41;;;;;;;0.10;0.10;;;10.80;99.90;;;;;;5047913;28;20099;-84
2022/05/16 00:05:07;;;;;;;0.00;0.00;;;10.80;99.90;;;;;;5043382;28;20045;-83
2022/05/16 00:07:33;;;;;;;0.32;0.32;;;10.80;99.90;;;;;;5046090;28;20040;-83
2022/05/16 00:10:00;;;;;;;0.20;0.20;;;10.70;99.90;;;;;;5046797;28;20467;-83
2022/05/16 00:12:25;;;;;;;0.00;0.00;;;10.80;99.90;;;;;;5046531;28;20045;-82
2022/05/16 00:14:51;;;;;;;0.00;0.00;;;10.80;99.90;;;;;;5014779;28;20041;-81
2022/05/16 00:17:17;;;;;;;0.10;0.10;;;10.80;99.90;;;;;;4997686;28;21402;-81
2022/05/16 00:19:43;;;;;;;3.70;2.60;;;10.80;99.90;;;;;;5013804;28;20075;-81
2022/05/16 00:22:09;;;;;;;0.10;0.10;;;10.80;99.90;;;;;;5046118;28;20561;-81
2022/05/16 00:24:38;;;;;;;0.52;0.28;;;10.80;99.90;;;;;;5044117;28;20098;-82
2022/05/16 00:27:04;;;;;;;0.90;0.63;;;10.90;99.90;;;;;;5028695;28;20047;-82
2022/05/16 00:29:29;;;;;;;0.45;0.45;;;10.80;99.90;;;;;;5012687;28;20041;-84
2022/05/16 00:31:55;;;;;;;0.05;0.05;;;10.80;99.90;;;;;;5045128;28;20048;-84
2022/05/16 00:34:21;;;;;;;1.48;0.43;;;10.80;99.90;;;;;;5043953;28;20128;-84
2022/05/16 00:36:47;;;;;;;0.73;0.32;;;10.80;99.90;;;;;;5026556;28;20041;-85
2022/05/16 00:39:15;;;;;;;0.57;0.40;;;10.80;99.90;;;;;;5041003;28;20047;-85
2022/05/16 00:41:42;;;;;;;0.10;0.10;;;10.70;99.90;;;;;;5007392;28;20037;-85
2022/05/16 00:44:08;;;;;;;0.00;0.00;;;10.70;99.90;;;;;;5013249;28;20119;-84
2022/05/16 00:46:33;;;;;;;0.10;0.10;;;10.80;99.90;;;;;;5046937;28;20128;-82
2022/05/16 00:49:01;;;;;;;14.05;0.80;;;10.80;99.90;;;;;;5044316;28;20051;-82
2022/05/16 00:51:49;;;;;;;0.22;0.20;;;10.80;99.90;;;;;;5028389;28;20037;-82
2022/05/16 00:54:20;;;;;;;1.48;0.75;;;10.80;99.90;;;;;;5044548;28;20040;-82
2022/05/16 00:56:50;;;;;;;0.10;0.10;;;10.80;99.90;;;;;;5044407;28;20136;-82
2022/05/16 00:59:16;;;;;;;0.95;0.95;;;10.80;99.90;;;;;;5025242;28;20041;-82
2022/05/16 01:07:11;;;;;;;0.00;0.00;;;10.80;99.90;;;;;;5029850;28;20040;-81
2022/05/16 01:09:37;;;;;;;0.00;0.00;;;10.80;99.90;;;;;;5044477;28;20037;-81
2022/05/16 01:12:04;;;;;;;0.30;0.30;;;10.90;99.90;;;;;;5027853;28;20046;-81
2022/05/16 01:14:50;;;;;;;0.40;0.35;;;10.80;99.90;;;;;;5034718;28;20044;-81
2022/05/16 01:17:16;;;;;;;0.55;0.45;;;10.80;99.90;;;;;;5042409;28;20037;-82
2022/05/16 01:19:42;;;;;;;0.20;0.20;;;10.80;99.90;;;;;;5060393;28;20048;-84
2022/05/16 01:22:32;;;;;;;0.10;0.10;;;10.80;99.90;;;;;;5045128;28;20419;-85
2022/05/16 01:25:02;;;;;;;0.15;0.15;;;10.80;99.90;;;;;;5027333;28;20044;-85
2022/05/16 01:27:49;;;;;;;0.10;0.10;;;10.80;99.90;;;;;;5039314;28;20506;-85
2022/05/16 01:30:19;;;;;;;0.30;0.30;;;10.80;99.90;;;;;;5029981;28;20048;-85
2022/05/16 01:32:44;;;;;;;0.00;0.00;;;10.70;99.90;;;;;;5044150;28;20049;-85
2022/05/16 01:35:10;;;;;;;0.43;0.30;;;10.70;99.90;;;;;;5046983;28;20080;-84
2022/05/16 01:40:20;;;;;;;0.13;0.13;;;10.70;99.90;;;;;;5045203;28;20045;-83
2022/05/16 01:42:46;;;;;;;0.00;0.00;;;10.70;99.90;;;;;;5047330;28;20056;-83
2022/05/16 01:45:12;;;;;;;0.32;0.32;;;10.60;99.90;;;;;;5045127;28;20465;-83
2022/05/16 01:47:38;;;;;;;1.67;0.40;;;10.60;99.90;;;;;;5044747;28;20032;-83
2022/05/16 01:50:04;;;;;;;0.03;0.03;;;10.70;99.90;;;;;;5041158;28;20076;-83
2022/05/16 01:52:30;;;;;;;0.10;0.10;;;10.70;99.90;;;;;;5033150;28;20139;-85
2022/05/16 01:54:55;;;;;;;0.10;0.10;;;10.70;99.90;;;;;;5030836;28;20036;-84
2022/05/16 01:57:21;;;;;;;0.10;0.10;;;10.70;99.90;;;;;;5046321;28;20040;-84
2022/05/16 01:59:47;;;;;;;0.13;0.13;;;10.70;99.90;;;;;;5047055;28;20479;-84
2022/05/16 02:02:13;;;;;;;0.20;0.20;;;10.80;99.90;;;;;;5033184;28;20041;-85
2022/05/16 02:04:39;;;;;;;0.00;0.00;;;10.80;99.90;;;;;;5045771;28;20064;-85
2022/05/16 02:07:04;;;;;;;0.17;0.17;;;10.80;99.90;;;;;;5030466;28;20041;-85
2022/05/16 02:09:30;;;;;;;0.10;0.10;;;10.80;99.90;;;;;;5028697;28;20467;-82
2022/05/16 02:11:56;;;;;;;0.00;0.00;;;10.80;99.90;;;;;;5045790;28;20033;-82
2022/05/16 02:14:23;;;;;;;0.20;0.20;;;10.90;99.90;;;;;;5024349;28;20467;-82
2022/05/16 02:16:49;;;;;;;3.55;3.22;;;10.90;99.90;;;;;;5056724;28;20033;-82
2022/05/16 02:19:15;;;;;;;1.00;0.65;;;11.60;99.90;;;;;;5042474;28;20044;-82
2022/05/16 02:24:42;;;;;;;0.10;0.10;;;11.00;99.90;;;;;;5029896;28;20045;-82
2022/05/16 02:27:15;;;;;;;0.40;0.40;;;11.00;99.90;;;;;;5044640;28;20041;-83
2022/05/16 02:29:42;;;;;;;0.25;0.20;;;11.00;99.90;;;;;;5043634;28;20041;-83
2022/05/16 02:32:08;;;;;;;0.03;0.03;;;11.10;99.90;;;;;;5045163;28;20067;-83
2022/05/16 02:34:34;;;;;;;1.27;0.63;;;11.10;99.90;;;;;;5027653;28;20053;-83
2022/05/16 02:36:59;;;;;;;0.10;0.10;;;11.10;99.90;;;;;;5029415;28;20033;-83
2022/05/16 02:39:25;;;;;;;2.65;0.70;;;11.20;99.90;;;;;;5042063;28;20125;-83
2022/05/16 02:41:51;;;;;;;0.20;0.20;;;11.20;99.90;;;;;;5027614;28;20057;-83
2022/05/16 02:44:17;;;;;;;0.32;0.32;;;11.20;99.90;;;;;;5043084;28;20144;-82
2022/05/16 02:46:44;;;;;;;0.65;0.52;;;11.20;99.90;;;;;;5041358;28;20041;-82
2022/05/16 02:49:09;;;;;;;0.60;0.60;;;11.10;99.90;;;;;;5043084;28;20108;-82
2022/05/16 02:51:36;;;;;;;0.10;0.10;;;11.10;99.90;;;;;;5043057;28;20040;-83
2022/05/16 02:54:02;;;;;;;0.10;0.10;;;11.10;99.90;;;;;;5028297;28;20037;-82
2022/05/16 02:56:29;;;;;;;0.05;0.05;;;11.10;99.90;;;;;;5042470;28;20032;-82
2022/05/16 02:58:55;;;;;;;0.10;0.10;;;11.10;99.90;;;;;;5043623;28;20041;-81
2022/05/16 03:01:20;;;;;;;0.00;0.00;;;11.10;99.90;;;;;;5024783;28;20494;-81
2022/05/16 03:03:46;;;;;;;1.25;0.45;;;11.10;99.90;;;;;;5026459;28;20032;-81
2022/05/16 03:06:12;;;;;;;0.17;0.17;;;11.10;99.90;;;;;;5026665;28;20507;-81
2022/05/16 03:08:38;;;;;;;0.25;0.25;;;11.00;99.90;;;;;;5040604;28;20041;-81
2022/05/16 03:11:05;;;;;;;0.50;0.50;;;11.00;99.90;;;;;;5027321;28;20095;-81
2022/05/16 03:13:31;;;;;;;0.20;0.20;;;11.00;99.90;;;;;;5028738;28;20045;-81
2022/05/16 03:15:58;;;;;;;0.20;0.20;;;11.00;99.90;;;;;;5042673;28;20402;-81
2022/05/16 03:18:26;;;;;;;1.10;0.88;;;10.90;99.90;;;;;;5028608;28;20041;-81
2022/05/16 03:20:52;;;;;;;0.45;0.32;;;10.90;99.90;;;;;;5046390;28;20036;-81
2022/05/16 03:23:18;;;;;;;0.00;0.00;;;10.90;99.90;;;;;;5031972;28;20980;-81
2022/05/16 03:25:44;;;;;;;0.10;0.10;;;10.90;99.90;;;;;;5032559;28;20064;-81
2022/05/16 03:28:11;;;;;;;0.20;0.20;;;10.90;99.90;;;;;;5046858;28;20094;-81
2022/05/16 03:30:37;;;;;;;0.40;0.40;;;10.90;99.90;;;;;;5018099;28;20044;-81
2022/05/16 03:33:03;;;;;;;0.10;0.10;;;10.90;99.90;;;;;;5049131;28;20041;-83
2022/05/16 03:35:29;;;;;;;0.15;0.15;;;10.90;99.90;;;;;;5046888;28;20053;-83
2022/05/16 03:37:55;;;;;;;0.10;0.10;;;10.90;99.90;;;;;;5044146;28;20058;-83
2022/05/16 03:43:05;;;;;;;0.05;0.05;;;10.90;99.90;;;;;;5044737;28;20064;-83
2022/05/16 03:45:30;;;;;;;0.00;0.00;;;11.00;99.90;;;;;;5030857;28;20065;-84
2022/05/16 03:47:57;;;;;;;0.10;0.10;;;11.00;99.90;;;;;;5031840;28;20045;-83
2022/05/16 03:50:23;;;;;;;0.00;0.00;;;11.00;99.90;;;;;;5014909;23;20045;-83
2022/05/16 03:52:49;;;;;;;0.10;0.10;;;11.00;99.90;;;;;;5012086;28;20415;-83
2022/05/16 03:55:16;;;;;;;0.10;0.10;;;10.90;99.90;;;;;;5009331;28;20376;-83
2022/05/16 03:57:42;;;;;;;0.00;0.00;;;11.00;99.90;;;;;;5023342;28;20038;-83
2022/05/16 04:00:12;;;;;;;0.00;0.00;;;11.00;99.90;;;;;;5009299;28;20041;-83
2022/05/16 04:02:40;;;;;;;0.43;0.43;;;11.00;99.90;;;;;;5023579;28;20465;-83
2022/05/16 04:05:08;;;;;;;0.20;0.20;;;11.10;99.90;;;;;;5042058;28;20042;-84
2022/05/16 04:07:35;;;;;;;0.10;0.10;;;11.10;99.90;;;;;;5025482;28;20522;-82
2022/05/16 04:10:01;;;;;;;1.38;0.63;;;11.10;99.90;;;;;;5025689;28;20041;-82
2022/05/16 04:12:27;;;;;;;0.10;0.10;;;11.10;99.90;;;;;;5026944;28;20048;-82
2022/05/16 04:14:53;;;;;;;1.00;0.20;;;11.10;99.90;;;;;;5024714;28;20052;-82
2022/05/16 04:17:19;;;;;;;0.30;0.30;;;11.10;99.90;;;;;;5008552;28;20041;-82
2022/05/16 04:19:45;;;;;;;0.20;0.20;;;11.10;99.90;;;;;;5025266;28;20530;-82
2022/05/16 04:22:12;;;;;;;0.22;0.22;;;11.20;99.90;;;;;;5023978;28;20124;-82
2022/05/16 04:24:38;;;;;;;0.10;0.10;;;11.20;99.90;;;;;;5008511;28;20103;-82
2022/05/16 04:27:04;;;;;;;3.03;0.65;;;11.30;99.90;;;;;;4991056;28;20045;-82
2022/05/16 04:29:30;;;;;;;0.52;0.52;;;11.30;99.90;;;;;;5038616;28;20041;-82
2022/05/16 04:31:56;;;;;;;0.17;0.17;;;11.30;99.90;;;;;;5026409;28;20794;-82
2022/05/16 04:34:21;;;;;;;0.77;0.65;;;11.30;99.90;;;;;;5009608;28;20045;-82
2022/05/16 04:36:47;;;;;;;0.17;0.17;;;11.40;99.90;;;;;;5007976;28;20042;-82
2022/05/16 04:39:13;;;;;;;0.00;0.00;;;11.50;99.90;;;;;;5027430;28;20037;-82
2022/05/16 04:44:23;;;;;;;0.45;0.45;;;11.60;99.90;;;;;;5023336;28;20072;-82
2022/05/16 04:46:49;;;;;;;0.20;0.20;;;11.70;99.90;;;;;;5023609;28;20080;-82
2022/05/16 04:49:14;;;;;;;0.05;0.05;;;11.80;99.90;;;;;;5022538;28;20053;-82
2022/05/16 04:51:40;;;;;;;0.47;0.30;;;11.80;99.90;;;;;;5024669;28;20049;-82
2022/05/16 04:54:06;;;;;;;0.00;0.00;;;11.90;99.90;;;;;;5023791;28;20132;-82
2022/05/16 04:56:32;;;;;;;0.00;0.00;;;12.00;99.90;;;;;;5006451;28;20123;-84
2022/05/16 04:58:58;;;;;;;0.10;0.10;;;12.10;99.90;;;;;;5003500;28;20076;-83
2022/05/16 05:01:24;;;;;;;0.22;0.22;;;12.20;99.90;;;;;;5026577;28;20098;-84
2022/05/16 05:03:50;;;;;;;0.10;0.10;;;12.30;99.90;;;;;;5025850;28;20394;-84
2022/05/16 05:06:17;;;;;;;0.10;0.10;;;12.40;99.90;;;;;;5024436;28;20045;-84
2022/05/16 05:08:43;;;;;;;0.20;0.20;;;12.50;99.90;;;;;;5024849;28;20037;-83
2022/05/16 05:16:38;;;;;;;0.00;0.00;;;12.70;99.90;;;;;;5010659;28;20042;-84
2022/05/16 05:19:04;;;;;;;2.53;0.88;;;12.80;99.90;;;;;;5024096;28;20041;-84
2022/05/16 05:21:29;;;;;;;0.10;0.05;;;12.90;99.90;;;;;;5020935;28;20102;-84
2022/05/16 05:23:56;;;;;;;0.80;0.80;;;13.10;99.90;;;;;;5006880;28;20048;-84
2022/05/16 05:26:21;;;;;;;0.10;0.10;;;13.20;99.90;;;;;;5020828;28;20433;-84
2022/05/16 05:28:47;;;;;;;0.00;0.00;;;13.10;99.90;;;;;;5020669;28;20106;-82
2022/05/16 05:31:16;;;;;;;0.00;0.00;;;13.10;99.90;;;;;;5020322;28;20053;-82
2022/05/16 05:33:43;;;;;;;1.55;0.63;;;13.00;99.90;;;;;;5022809;28;20622;-82
2022/05/16 05:36:09;;;;;;;0.00;0.00;;;13.10;99.90;;;;;;5021013;28;20030;-82
2022/05/16 05:38:36;;;;;;;0.05;0.05;;;13.20;99.90;;;;;;5023774;28;20037;-82
2022/05/16 05:41:04;;;;;;;0.80;0.32;;;13.50;99.90;;;;;;5008841;28;20053;-82
2022/05/16 05:43:29;;;;;;;0.80;0.40;;;14.10;99.90;;;;;;5040470;28;20037;-82
2022/05/16 05:45:55;;;;;;;0.38;0.20;;;14.80;99.90;;;;;;5024369;28;20102;-82
2022/05/16 05:48:21;;;;;;;0.10;0.10;;;15.40;99.90;;;;;;5008063;28;20045;-82
2022/05/16 05:50:46;;;;;;;0.28;0.25;;;15.90;99.90;;;;;;5024998;28;20045;-82
2022/05/16 05:53:12;;;;;;;1.40;0.55;;;16.40;99.90;;;;;;5023752;28;20048;-82
2022/05/16 05:55:39;;;;;;;2.28;0.38;;;16.80;99.90;;;;;;5023179;28;20044;-82
2022/05/16 05:58:05;;;;;;;0.08;0.08;;;16.70;99.90;;;;;;5001807;28;20040;-82
2022/05/16 06:00:31;;;;;;;0.40;0.40;;;16.90;99.90;;;;;;5025984;28;20041;-82
2022/05/16 06:02:58;;;;;;;0.40;0.30;;;17.20;99.90;;;;;;4990591;28;20103;-82
2022/05/16 06:05:24;;;;;;;0.20;0.20;;;17.20;99.90;;;;;;5020019;28;20565;-82
2022/05/16 06:07:50;;;;;;;0.35;0.35;;;17.60;99.90;;;;;;5005937;28;20037;-82
2022/05/16 06:10:15;;;;;;;0.22;0.20;;;17.90;99.90;;;;;;5007088;28;20052;-82
2022/05/16 06:12:41;;;;;;;0.17;0.17;;;18.20;99.90;;;;;;5021439;28;20045;-82
2022/05/16 06:15:08;;;;;;;0.00;0.00;;;18.40;99.90;;;;;;4988109;28;20636;-82
2022/05/16 06:17:37;;;;;;;0.17;0.17;;;19.00;99.90;;;;;;5004561;28;20095;-82
2022/05/16 06:20:04;;;;;;;0.40;0.28;;;19.30;99.90;;;;;;5007762;28;20483;-83
2022/05/16 06:22:34;;;;;;;0.50;0.40;;;19.80;99.70;;;;;;5007418;28;20045;-82
2022/05/16 06:27:48;;;;;;;0.08;0.08;;;20.10;97.80;;;;;;5023684;28;20476;-82
2022/05/16 06:30:15;;;;;;;0.00;0.00;;;20.00;96.90;;;;;;5023362;28;20087;-82
2022/05/16 06:32:41;;;;;;;0.63;0.63;;;20.00;97.80;;;;;;5040515;28;20041;-82
2022/05/16 06:35:07;;;;;;;0.10;0.10;;;19.80;97.90;;;;;;5023597;28;20084;-82
2022/05/16 06:37:33;;;;;;;0.00;0.00;;;20.20;97.10;;;;;;5024725;28;20052;-85
2022/05/16 06:39:59;;;;;;;0.10;0.10;;;20.60;96.00;;;;;;4989365;28;20041;-85
2022/05/16 06:42:24;;;;;;;0.25;0.25;;;20.70;95.20;;;;;;5004349;28;20041;-85
2022/05/16 06:44:52;;;;;;;0.00;0.00;;;20.80;95.10;;;;;;5022083;28;20064;-84
2022/05/16 06:47:18;;;;;;;0.15;0.15;;;21.00;94.30;;;;;;5019089;28;20690;-84
2022/05/16 06:49:44;;;;;;;0.95;0.63;;;21.10;95.20;;;;;;5003866;28;20123;-85
2022/05/16 06:52:10;;;;;;;0.52;0.52;;;21.20;94.40;;;;;;4990602;28;20042;-86
2022/05/16 06:54:35;;;;;;;0.75;0.63;;;21.10;94.80;;;;;;5025937;28;20033;-85
2022/05/16 06:57:02;;;;;;;0.13;0.13;;;;;;;;;;5009615;28;20045;-86
2022/05/16 06:59:27;;;;;;;0.20;0.20;;;21.70;93.20;;;;;;5008619;28;20123;-86
2022/05/16 07:01:53;;;;;;;1.50;1.40;;;22.20;93.20;;;;;;5025639;28;20124;-86
2022/05/16 07:04:19;;;;;;;0.05;0.05;;;21.70;92.50;;;;;;5021359;28;20053;-86
2022/05/16 07:06:45;;;;;;;0.32;0.32;;;21.70;93.50;;;;;;5039348;28;20084;-86
2022/05/16 07:09:10;;;;;;;0.20;0.20;;;21.50;93.60;;;;;;5023832;28;20080;-83
2022/05/16 07:11:36;;;;;;;0.30;0.30;;;21.20;93.30;;;;;;5009887;28;20042;-82
2022/05/16 07:14:02;;;;;;;0.30;0.30;;;20.60;93.40;;;;;;5024513;28;20048;-83
2022/05/16 07:16:27;;;;;;;0.20;0.10;;;20.40;94.80;;;;;;5024340;28;20044;-83
2022/05/16 07:18:54;;;;;;;0.30;0.30;;;20.10;95.20;;;;;;5024157;28;20037;-86
2022/05/16 07:21:20;;;;;;;0.13;0.10;;;20.10;95.90;;;;;;5010999;28;20509;-83
2022/05/16 07:23:46;;;;;;;0.05;0.05;;;20.10;96.10;;;;;;5040108;28;20049;-82
2022/05/16 07:28:57;;;;;;;0.13;0.13;;;21.00;96.70;;;;;;5022586;28;20042;-82
2022/05/16 07:31:23;;;;;;;0.28;0.28;;;22.30;94.00;;;;;;5008550;28;20060;-82
2022/05/16 07:33:49;;;;;;;0.10;0.10;;;23.10;93.00;;;;;;5024008;28;20136;-82
2022/05/16 07:36:15;;;;;;;0.10;0.10;;;23.40;92.20;;;;;;5023573;28;20128;-82
2022/05/16 07:38:40;;;;;;;0.40;0.35;;;23.80;88.70;;;;;;5025332;28;21855;-82
2022/05/16 07:41:08;;;;;;;0.10;0.10;;;24.40;90.30;;;;;;4991767;28;20144;-83
2022/05/16 07:43:35;;;;;;;0.40;0.40;;;24.40;87.80;;;;;;5006361;28;20481;-86
2022/05/16 07:46:01;;;;;;;0.93;0.47;;;25.00;85.10;;;;;;5010132;28;20045;-86
2022/05/16 07:48:27;;;;;;;0.10;0.10;;;24.80;83.30;;;;;;5006006;28;20038;-85
2022/05/16 07:50:53;;;;;;;0.40;0.22;;;25.30;82.60;;;;;;5010526;28;20501;-86
2022/05/16 07:53:19;;;;;;;3.08;0.52;;;25.80;81.70;;;;;;5024262;28;20041;-86
2022/05/16 07:55:54;;;;;;;1.05;0.95;;;26.40;77.70;;;;;;5023368;28;20048;-84
2022/05/16 07:58:20;;;;;;;0.68;0.68;;;26.30;77.50;;;;;;5021743;28;20045;-84
2022/05/16 08:00:50;;;;;;;0.00;0.00;;;27.10;76.80;;;;;;5026091;28;20483;-83
2022/05/16 08:03:21;;;;;;;0.10;0.10;;;27.60;72.60;;;;;;5005193;28;20036;-83
2022/05/16 08:05:47;;;;;;;0.00;0.00;;;27.80;72.60;;;;;;5022081;28;20070;-83
2022/05/16 08:10:59;;;;;;;0.13;0.13;;;28.10;68.20;;;;;;5024126;28;20132;-83
2022/05/16 08:13:26;;;;;;;0.22;0.22;;;28.90;69.00;;;;;;5022328;28;20041;-83
2022/05/16 08:15:52;;;;;;;0.30;0.28;;;29.50;65.80;;;;;;5024269;28;20430;-83
2022/05/16 08:18:18;;;;;;;0.13;0.13;;;29.60;65.50;;;;;;5004673;28;20037;-84
2022/05/16 08:20:46;;;;;;;0.22;0.20;;;29.50;65.30;;;;;;5008492;28;20051;-83
2022/05/16 08:23:16;;;;;;;0.10;0.10;;;29.80;65.40;;;;;;5007462;28;20393;-84
2022/05/16 08:25:45;;;;;;;0.05;0.05;;;29.60;63.70;;;;;;5024327;28;20403;-84
2022/05/16 08:28:12;;;;;;;0.90;0.75;;;29.00;63.60;;;;;;5007116;28;20038;-83
2022/05/16 08:30:38;;;;;;;0.90;0.63;;;28.00;64.20;;;;;;5026773;28;20155;-84
2022/05/16 08:33:04;;;;;;;0.13;0.13;;;27.50;65.80;;;;;;5025812;28;20033;-81
2022/05/16 08:35:30;;;;;;;0.55;0.55;;;27.10;65.60;;;;;;5025702;28;20040;-81
2022/05/16 08:40:40;;;;;;;1.45;0.90;;;26.30;68.20;;;;;;5012073;28;20042;-81
2022/05/16 08:43:30;;;;;;;0.20;0.20;;;26.00;70.70;;;;;;5023646;28;20037;-81
2022/05/16 08:46:15;;;;;;;0.25;0.25;;;25.60;71.70;;;;;;4992876;28;20088;-81
2022/05/16 08:48:45;;;;;;;0.03;0.03;;;25.60;71.60;;;;;;5038109;28;20099;-85
2022/05/16 08:51:24;;;;;;;0.43;0.43;;;26.60;71.80;;;;;;5038280;28;20077;-84
2022/05/16 08:53:55;;;;;;;0.30;0.30;;;27.20;67.20;;;;;;5022878;28;20038;-85
2022/05/16 08:56:28;;;;;;;0.40;0.40;;;27.80;67.20;;;;;;5022962;28;20043;-84
2022/05/16 08:59:02;;;;;;;0.65;0.65;;;27.80;65.50;;;;;;5005944;28;20415;-84
2022/05/16 09:01:38;;;;;;;0.40;0.40;;;27.70;65.90;;;;;;5022148;28;20045;-84
2022/05/16 09:04:18;;;;;;;0.40;0.40;;;28.00;66.40;;;;;;5023839;28;20044;-84
2022/05/16 09:06:57;;;;;;;0.20;0.20;;;27.90;65.40;;;;;;5006099;28;20392;-83
2022/05/16 09:09:27;;;;;;;0.20;0.20;;;28.50;65.00;;;;;;5037160;28;20052;-83
2022/05/16 09:12:06;;;;;;;0.20;0.20;;;28.90;63.90;;;;;;5023589;28;20033;-83
2022/05/16 09:14:52;;;;;;;2.67;0.45;;;29.40;65.70;;;;;;5021534;28;20071;-83
2022/05/16 09:17:52;;;;;;;2.08;1.30;;;30.00;63.10;;;;;;5021544;28;20048;-81
2022/05/16 09:20:43;;;;;;;0.10;0.10;;;30.30;62.90;;;;;;5023516;28;20184;-80
2022/05/16 09:23:31;;;;;;;0.30;0.30;;;30.70;60.60;;;;;;5006041;28;20053;-81
2022/05/16 09:26:23;;;;;;;0.65;0.65;;;31.20;60.40;;;;;;5021371;28;20512;-81
2022/05/16 09:29:15;;;;;;;0.52;0.52;;;31.20;58.20;;;;;;5021076;28;20033;-81
2022/05/16 09:31:44;;;;;;;0.20;0.20;;;30.90;59.70;;;;;;5005231;28;20037;-81
2022/05/16 09:34:11;;;;;;;0.90;0.75;;;31.10;60.40;;;;;;5036904;28;20073;-81
2022/05/16 09:36:45;;;;;;;0.20;0.20;;;30.80;59.10;;;;;;5005637;28;20033;-82
2022/05/16 09:39:12;;;;;;;0.13;0.13;;;31.40;60.10;;;;;;5022813;28;20128;-83
2022/05/16 09:41:45;;;;;;;0.52;0.52;;;31.40;62.40;;;;;;5006269;28;20368;-83
2022/05/16 09:44:44;;;;;;;1.27;0.90;;;31.30;58.80;;;;;;5037516;28;20137;-84
2022/05/16 09:47:15;;;;;;;0.17;0.17;;;29.90;60.40;;;;;;5033902;28;20078;-83
2022/05/16 09:49:42;;;;;;;0.20;0.20;;;29.20;61.60;;;;;;5035698;28;20668;-83
2022/05/16 09:52:21;;;;;;;0.73;0.73;;;28.30;64.10;;;;;;5038921;28;20128;-84
2022/05/16 09:55:21;;;;;;;0.22;0.20;;;28.00;64.20;;;;;;5019865;28;20538;-84
2022/05/16 09:57:56;;;;;;;0.65;0.40;;;28.00;64.90;;;;;;5016750;28;20060;-83
2022/05/16 10:00:33;;;;;;;0.30;0.30;;;27.70;64.00;;;;;;5037821;28;20047;-83
2022/05/16 10:03:16;;;;;;;0.20;0.20;;;27.60;65.60;;;;;;5020433;28;20115;-83
2022/05/16 10:05:51;;;;;;;0.10;0.10;;;27.40;64.60;;;;;;5021854;28;20045;-83
2022/05/16 10:08:26;;;;;;;0.40;0.38;;;27.20;66.20;;;;;;5020952;28;20084;-83
2022/05/16 10:10:53;;;;;;;0.10;0.10;;;27.40;66.30;;;;;;5020884;28;20510;-83
2022/05/16 10:13:19;;;;;;;1.05;0.80;;;28.00;66.80;;;;;;5021460;28;20052;-84
2022/05/16 10:15:48;;;;;;;0.35;0.30;;;28.70;67.10;;;;;;5020082;28;20423;-84
2022/05/16 10:18:19;;;;;;;0.88;0.55;;;29.10;63.60;;;;;;5020486;28;20037;-85
2022/05/16 10:20:53;;;;;;;0.22;0.20;;;29.10;63.50;;;;;;5021446;28;20112;-84
2022/05/16 10:23:27;;;;;;;0.32;0.30;;;29.00;65.50;;;;;;5019682;28;20052;-84
2022/05/16 10:25:55;;;;;;;0.10;0.10;;;29.00;63.80;;;;;;5021601;28;20498;-84
2022/05/16 10:28:58;;;;;;;0.20;0.20;;;28.60;62.60;;;;;;5004285;28;20096;-84
2022/05/16 10:34:42;;;;;;;0.30;0.30;;;27.10;64.70;;;;;;5020057;28;20037;-81
2022/05/16 10:37:09;;;;;;;0.20;0.20;;;26.80;65.50;;;;;;5020129;28;20124;-80
2022/05/16 10:39:41;;;;;;;0.10;0.10;;;26.50;67.50;;;;;;5019452;28;20180;-80
2022/05/16 10:42:12;;;;;;;0.95;0.95;;;26.20;67.90;;;;;;5019222;28;20044;-80
2022/05/16 10:44:44;;;;;;;0.15;0.15;;;25.70;68.30;;;;;;5020443;28;20049;-83
2022/05/16 10:47:15;;;;;;;0.20;0.20;;;25.60;70.00;;;;;;5003026;28;20049;-80
2022/05/16 10:50:06;;;;;;;3.30;1.13;;;25.40;69.60;;;;;;5029924;28;20053;-80
2022/05/16 10:52:42;;;;;;;0.10;0.10;;;25.50;71.30;;;;;;5017025;28;20038;-80
2022/05/16 10:55:08;;;;;;;0.25;0.25;;;25.50;69.40;;;;;;5029588;28;20033;-80
2022/05/16 10:58:08;;;;;;;0.00;0.00;;;25.60;71.20;;;;;;5024541;28;20446;-80
2022/05/16 11:00:42;;;;;;;0.10;0.10;;;25.70;71.20;;;;;;5022698;28;20140;-80
2022/05/16 11:03:17;;;;;;;0.10;0.10;;;25.80;70.90;;;;;;5020937;28;20056;-80
2022/05/16 11:06:11;;;;;;;0.13;0.13;;;25.90;70.40;;;;;;5003406;28;20087;-83
2022/05/16 11:08:59;;;;;;;0.45;0.40;;;26.10;70.30;;;;;;5022501;28;20491;-82
2022/05/16 11:11:36;;;;;;;0.17;0.17;;;26.50;71.10;;;;;;5035872;28;20264;-82
2022/05/16 11:14:15;;;;;;;0.98;0.93;;;27.10;69.20;;;;;;5035005;28;20041;-83
2022/05/16 11:16:41;;;;;;;0.20;0.20;;;27.60;69.10;;;;;;5002588;28;20562;-83
2022/05/16 11:19:25;;;;;;;0.30;0.30;;;28.00;69.00;;;;;;5017153;28;20512;-81
2022/05/16 11:21:57;;;;;;;0.20;0.20;;;28.50;69.10;;;;;;5036628;28;20399;-81
2022/05/16 11:24:42;;;;;;;0.25;0.25;;;29.00;68.10;;;;;;5005485;28;20045;-81
2022/05/16 11:27:13;;;;;;;8.68;0.88;;;29.60;65.70;;;;;;5019824;28;20377;-81
2022/05/16 11:29:55;;;;;;;0.10;0.10;;;30.70;63.40;;;;;;5004196;28;20084;-81
2022/05/16 11:32:27;;;;;;;0.30;0.30;;;31.70;63.50;;;;;;5002708;28;20140;-81
2022/05/16 11:35:12;;;;;;;0.40;0.20;;;32.30;64.10;;;;;;5018432;28;20037;-81
2022/05/16 11:37:52;;;;;;;0.22;0.20;;;32.00;60.20;;;;;;5035028;28;20091;-81
2022/05/16 11:40:23;;;;;;;0.13;0.13;;;31.40;61.80;;;;;;5022727;28;21411;-81
2022/05/16 11:43:13;;;;;;;0.30;0.30;;;30.80;61.80;;;;;;5022366;28;20446;-81
2022/05/16 11:46:17;;;;;;;0.20;0.20;;;30.10;63.70;;;;;;5006504;28;20450;-81
2022/05/16 11:49:00;;;;;;;0.50;0.38;;;29.30;65.50;;;;;;5023787;28;20490;-81
2022/05/16 11:51:55;;;;;;;0.43;0.43;;;28.60;66.40;;;;;;5006259;28;20053;-82
2022/05/16 11:54:30;;;;;;;1.75;0.50;;;28.10;67.00;;;;;;4976291;28;20041;-82
2022/05/16 12:02:29;;;;;;;0.25;0.25;;;27.00;70.00;;;;;;5022662;28;20050;-81
2022/05/16 12:05:13;;;;;;;0.85;0.68;;;26.60;70.80;;;;;;5021599;28;21472;-81
2022/05/16 12:07:44;;;;;;;0.30;0.30;;;26.60;73.10;;;;;;5022800;28;20633;-81
2022/05/16 12:10:10;;;;;;;0.20;0.20;;;26.50;73.80;;;;;;5037899;28;20044;-82
2022/05/16 12:12:48;;;;;;;0.13;0.13;;;26.50;72.60;;;;;;5022471;28;20037;-82
2022/05/16 12:15:26;;;;;;;0.20;0.20;;;26.60;72.40;;;;;;5039971;28;20399;-82
2022/05/16 12:17:54;;;;;;;0.70;0.65;;;26.90;74.30;;;;;;5022860;28;20452;-82
2022/05/16 12:20:58;;;;;;;0.15;0.15;;;27.00;73.00;;;;;;5024037;28;20124;-82
2022/05/16 12:23:52;;;;;;;0.47;0.35;;;27.00;72.80;;;;;;5022656;28;20046;-82
2022/05/16 12:26:27;;;;;;;0.13;0.13;;;27.30;72.10;;;;;;5022350;28;20329;-81
2022/05/16 12:29:08;;;;;;;0.33;0.33;;;27.30;71.70;;;;;;5021891;28;20407;-81
2022/05/16 12:31:49;;;;;;;0.45;0.45;;;27.30;71.50;;;;;;5005618;28;20304;-82
2022/05/16 12:34:43;;;;;;;1.00;0.57;;;27.00;70.70;;;;;;5005663;28;20195;-84
2022/05/16 12:37:15;;;;;;;0.17;0.17;;;26.70;71.60;;;;;;5019723;28;20890;-84
2022/05/16 12:40:22;;;;;;;0.50;0.50;;;26.40;72.90;;;;;;5021291;28;20029;-83
2022/05/16 12:43:17;;;;;;;0.90;0.80;;;26.40;73.10;;;;;;4953415;28;20071;-85
2022/05/16 12:46:08;;;;;;;0.47;0.30;;;26.60;73.20;;;;;;4934219;28;20043;-85
2022/05/16 12:48:55;;;;;;;12.23;2.17;;;26.40;73.60;;;;;;5007287;28;20053;-83
2022/05/16 12:51:50;;;;;;;0.10;0.10;;;26.60;74.70;;;;;;5005495;28;20046;-85
2022/05/16 12:54:22;;;;;;;0.30;0.30;;;26.70;73.10;;;;;;5006418;28;20038;-84
2022/05/16 12:56:54;;;;;;;0.00;0.00;;;26.90;72.50;;;;;;5020887;28;20033;-85
2022/05/16 12:59:31;;;;;;;0.32;0.32;;;26.50;72.70;;;;;;5022861;28;20038;-80
2022/05/16 13:02:26;;;;;;;0.68;0.35;;;26.50;74.00;;;;;;5033814;28;20053;-80
2022/05/16 13:05:10;;;;;;;3.83;0.38;;;26.60;73.40;;;;;;5032287;28;20689;-79
2022/05/16 13:08:04;;;;;;;1.05;1.00;;;26.40;73.20;;;;;;5021875;28;20042;-80
2022/05/16 13:11:01;;;;;;;0.28;0.28;;;26.30;72.70;;;;;;5037108;28;20135;-79
2022/05/16 13:13:39;;;;;;;0.20;0.20;;;26.40;74.20;;;;;;5023337;28;20040;-79
2022/05/16 13:16:25;;;;;;;0.32;0.32;;;26.70;73.90;;;;;;5022353;28;20151;-82
2022/05/16 13:19:08;;;;;;;0.52;0.52;;;27.20;74.40;;;;;;5004278;28;20136;-82
2022/05/16 13:21:51;;;;;;;0.95;0.80;;;27.50;72.90;;;;;;5004669;28;20468;-82
2022/05/16 13:24:18;;;;;;;0.20;0.20;;;27.70;72.70;;;;;;5021104;28;20046;-82
2022/05/16 13:29:34;;;;;;;1.55;1.45;;;28.00;72.80;;;;;;5018628;28;20747;-82
2022/05/16 13:32:10;;;;;;;0.60;0.50;;;27.60;73.40;;;;;;5007269;28;20128;-81
2022/05/16 13:34:45;;;;;;;0.50;0.50;;;27.60;73.90;;;;;;5019441;28;20045;-81
2022/05/16 13:37:11;;;;;;;1.73;1.25;;;27.80;73.80;;;;;;5035363;28;20476;-81
2022/05/16 13:39:43;;;;;;;1.33;1.23;;;27.60;73.70;;;;;;5022158;28;20539;-81
2022/05/16 13:42:09;;;;;;;1.10;0.98;;;27.50;74.70;;;;;;5019256;28;20034;-81
2022/05/16 13:44:37;;;;;;;2.20;1.80;;;27.30;74.50;;;;;;5005471;28;20124;-81
2022/05/16 13:47:07;;;;;;;1.33;1.23;;;27.60;76.00;;;;;;5021823;28;20084;-81
2022/05/16 13:49:33;;;;;;;0.10;0.10;;;27.50;73.90;;;;;;4986221;28;1124756;-82
2022/05/16 13:52:00;;;;;;;0.38;0.38;;;27.70;75.50;;;;;;5026332;28;20406;-82